Time;durP1;ratioP1;P1;durP2;ratioP2;P2;SDS_P1;SDS_P2;PMS_P1;PMS_P2;Temp;Humidity;BMP_temperature;BMP_pressure;BME280_temperature;BME280_humidity;BME280_pressure;Samples;Min_cycle;Max_cycle;Signal;HPM_P1;HPM_P2
2024/02/08 00:01:23;;;;;;;15.55;9.82;;;;;;;0.34;100.00;100335.13;10116238;28;20074;-72
2024/02/08 00:06:20;;;;;;;17.98;10.23;;;;;;;0.27;100.00;100345.31;10102577;28;20047;-73
2024/02/08 00:11:16;;;;;;;15.57;11.00;;;;;;;0.28;100.00;100333.47;10109554;28;20047;-74
2024/02/08 00:16:13;;;;;;;15.20;11.15;;;;;;;0.39;100.00;100327.09;10098795;28;20072;-73
2024/02/08 00:21:09;;;;;;;13.60;10.30;;;;;;;0.24;100.00;100324.31;10104856;28;20470;-73
2024/02/08 00:26:06;;;;;;;17.90;11.23;;;;;;;0.13;100.00;100324.22;10111866;28;20786;-72
2024/02/08 00:31:04;;;;;;;18.00;12.57;;;;;;;0.11;100.00;100321.00;10108025;28;20073;-71
2024/02/08 00:36:01;;;;;;;19.55;11.75;;;;;;;0.10;100.00;100330.13;10102213;28;20046;-72
2024/02/08 00:40:57;;;;;;;19.05;10.40;;;;;;;0.14;100.00;100314.28;10097589;28;20077;-74
2024/02/08 00:45:54;;;;;;;13.48;9.95;;;;;;;0.28;100.00;100314.66;10105787;28;20118;-73
2024/02/08 00:50:50;;;;;;;16.25;10.35;;;;;;;0.10;100.00;100313.19;10104592;28;20063;-72
2024/02/08 00:55:47;;;;;;;13.73;9.85;;;;;;;0.01;100.00;100310.19;10105889;28;20046;-72
2024/02/08 01:00:44;;;;;;;17.52;10.38;;;;;;;0.01;100.00;100294.03;10113566;28;20570;-72
2024/02/08 01:05:42;;;;;;;16.60;9.85;;;;;;;0.03;100.00;100297.28;10108055;28;20043;-71
2024/02/08 01:10:38;;;;;;;18.40;10.57;;;;;;;-0.03;100.00;100287.56;10112100;28;20043;-73
2024/02/08 01:15:35;;;;;;;14.88;10.10;;;;;;;0.11;100.00;100293.31;10094468;28;20051;-73
2024/02/08 01:20:32;;;;;;;15.80;9.48;;;;;;;0.18;100.00;100292.00;10113071;28;20050;-74
2024/02/08 01:25:29;;;;;;;13.13;9.25;;;;;;;0.25;100.00;100288.28;10101280;28;20043;-73
2024/02/08 01:30:26;;;;;;;16.23;9.45;;;;;;;0.33;100.00;100296.69;10108391;28;20046;-72
2024/02/08 01:35:23;;;;;;;14.48;9.20;;;;;;;0.30;100.00;100296.38;10104841;28;20047;-72
2024/02/08 01:40:21;;;;;;;20.73;9.48;;;;;;;0.32;100.00;100283.47;10100409;28;20684;-71
2024/02/08 01:45:31;;;;;;;11.45;10.07;;;;;;;0.28;100.00;100280.53;10105000;28;20059;-71
2024/02/08 01:50:30;;;;;;;13.20;9.27;;;;;;;0.27;100.00;100286.16;10095246;28;20578;-71
2024/02/08 01:55:36;;;;;;;13.32;9.23;;;;;;;0.39;100.00;100267.94;10087834;28;20495;-72
2024/02/08 02:00:36;;;;;;;13.60;9.55;;;;;;;0.46;100.00;100263.13;10098349;28;20039;-73
2024/02/08 02:05:33;;;;;;;18.90;9.55;;;;;;;0.51;100.00;100265.03;10101055;28;20043;-74
2024/02/08 02:10:30;;;;;;;18.20;8.73;;;;;;;0.55;100.00;100266.94;10111976;28;20058;-74
2024/02/08 02:15:31;;;;;;;14.48;8.50;;;;;;;0.45;100.00;100261.50;10112957;28;20204;-74
2024/02/08 02:20:31;;;;;;;13.43;8.00;;;;;;;0.68;100.00;100270.22;10113420;28;20065;-71
2024/02/08 02:25:28;;;;;;;16.17;7.95;;;;;;;0.80;100.00;100262.72;10109315;28;20054;-73
2024/02/08 02:30:28;;;;;;;15.95;8.75;;;;;;;0.87;100.00;100263.28;10108780;28;20700;-71
2024/02/08 02:35:24;;;;;;;16.83;7.95;;;;;;;0.91;100.00;100259.00;10115686;28;20063;-71
2024/02/08 02:40:24;;;;;;;15.65;6.50;;;;;;;0.85;100.00;100254.66;10115916;28;21024;-75
2024/02/08 02:45:28;;;;;;;12.55;5.72;;;;;;;0.97;100.00;100262.50;10103695;28;20109;-71
2024/02/08 02:50:25;;;;;;;20.77;6.70;;;;;;;0.97;100.00;100257.13;10123379;28;20042;-72
2024/02/08 02:55:25;;;;;;;13.43;6.45;;;;;;;1.00;100.00;100262.00;10102505;28;20051;-74
2024/02/08 03:00:23;;;;;;;18.38;5.72;;;;;;;1.08;100.00;100252.59;10111504;28;20081;-73
2024/02/08 03:05:23;;;;;;;15.07;6.00;;;;;;;1.12;100.00;100259.06;10103424;28;20554;-72
2024/02/08 03:10:22;;;;;;;14.07;6.75;;;;;;;1.14;100.00;100259.59;10116441;28;20054;-72
2024/02/08 03:15:19;;;;;;;13.18;6.32;;;;;;;1.17;100.00;100256.38;10103570;28;20425;-72
2024/02/08 03:20:29;;;;;;;9.02;5.55;;;;;;;1.20;100.00;100250.44;10095333;28;20095;-75
2024/02/08 03:25:26;;;;;;;12.40;6.03;;;;;;;1.21;100.00;100252.09;10103600;28;20051;-75
2024/02/08 03:30:23;;;;;;;13.90;6.20;;;;;;;1.27;100.00;100257.19;10110467;28;20039;-75
2024/02/08 03:35:25;;;;;;;11.18;5.78;;;;;;;1.27;100.00;100251.00;10101244;28;20051;-70
2024/02/08 03:40:25;;;;;;;10.98;6.30;;;;;;;1.26;100.00;100254.78;10103485;28;20055;-73
2024/02/08 03:45:27;;;;;;;13.90;6.35;;;;;;;1.32;100.00;100248.31;10105008;28;20054;-72
2024/02/08 03:50:33;;;;;;;13.15;5.63;;;;;;;1.32;100.00;100242.91;10108579;28;20046;-72
2024/02/08 03:55:30;;;;;;;9.77;5.40;;;;;;;1.31;100.00;100243.19;10108660;28;20050;-73
2024/02/08 04:00:28;;;;;;;13.25;5.85;;;;;;;1.31;100.00;100240.50;10099909;28;20050;-73
2024/02/08 04:05:37;;;;;;;12.68;5.20;;;;;;;1.32;100.00;100232.13;10110933;28;20035;-71
2024/02/08 04:57:37;;;;;;;15.85;7.70;;;;;;;1.26;100.00;100238.63;10105418;28;20526;-71
2024/02/08 05:02:34;;;;;;;15.10;7.57;;;;;;;1.24;100.00;100225.41;10102684;28;20047;-72
2024/02/08 05:07:30;;;;;;;12.68;7.50;;;;;;;1.24;100.00;100230.00;10101103;28;20046;-72
2024/02/08 05:12:29;;;;;;;12.05;8.07;;;;;;;1.23;100.00;100228.34;10109178;28;20084;-71
2024/02/08 05:17:29;;;;;;;8.95;7.85;;;;;;;1.21;100.00;100233.22;10088156;28;20035;-72
2024/02/08 05:22:26;;;;;;;15.77;9.07;;;;;;;1.22;100.00;100240.22;10102280;28;20054;-72
2024/02/08 05:27:22;;;;;;;15.13;8.52;;;;;;;1.18;100.00;100241.81;10098239;28;20047;-71
2024/02/08 05:32:22;;;;;;;14.05;8.07;;;;;;;1.20;100.00;100253.13;10096369;28;20055;-72
2024/02/08 05:37:25;;;;;;;13.60;8.40;;;;;;;1.23;100.00;100253.44;10099869;28;20054;-72
2024/02/08 05:42:24;;;;;;;20.05;9.10;;;;;;;1.23;100.00;100239.97;10102429;28;20046;-71
2024/02/08 05:47:26;;;;;;;15.93;8.55;;;;;;;1.27;100.00;100240.22;10096867;28;20049;-72
2024/02/08 05:52:26;;;;;;;13.57;8.50;;;;;;;1.28;100.00;100247.25;10103841;28;20090;-71
2024/02/08 05:57:24;;;;;;;17.08;10.00;;;;;;;1.20;100.00;100255.84;10092432;28;20442;-72
2024/02/08 06:02:23;;;;;;;14.70;9.50;;;;;;;1.36;100.00;100244.00;10097672;28;20048;-72
2024/02/08 06:07:23;;;;;;;13.55;8.93;;;;;;;1.28;100.00;100249.94;10098016;28;20051;-72
2024/02/08 06:12:42;;;;;;;13.45;9.75;;;;;;;1.33;100.00;100255.31;10087358;28;20050;-73
2024/02/08 06:17:45;;;;;;;15.27;9.05;;;;;;;1.31;100.00;100238.63;10081964;28;20047;-72
2024/02/08 06:22:43;;;;;;;22.83;9.83;;;;;;;1.30;100.00;100237.00;10094579;28;20117;-72
2024/02/08 06:27:41;;;;;;;11.20;10.10;;;;;;;1.30;100.00;100236.19;10103986;28;20071;-72
2024/02/08 06:32:44;;;;;;;11.20;8.50;;;;;;;1.32;100.00;100242.13;10108201;28;20059;-73
2024/02/08 06:37:56;;;;;;;10.23;8.40;;;;;;;1.34;100.00;100242.66;10094908;28;20121;-73
2024/02/08 06:47:56;;;;;;;15.18;10.20;;;;;;;1.37;100.00;100240.25;10102272;28;20058;-72
2024/02/08 07:40:23;;;;;;;22.70;12.57;;;;;;;1.73;100.00;100217.88;10101738;28;20462;-72
2024/02/08 07:45:29;;;;;;;17.08;10.68;;;;;;;1.74;100.00;100217.63;10100900;28;20055;-73
2024/02/08 07:50:35;;;;;;;17.35;10.38;;;;;;;1.81;100.00;100242.41;10100882;28;21427;-73
2024/02/08 08:05:33;;;;;;;18.75;10.98;;;;;;;1.89;100.00;100247.25;10102406;28;20043;-73
2024/02/08 08:10:33;;;;;;;16.10;9.93;;;;;;;1.95;100.00;100233.75;10105293;28;20058;-72
2024/02/08 08:15:35;;;;;;;12.52;10.55;;;;;;;2.02;100.00;100224.31;10098912;28;20063;-72
2024/02/08 08:20:56;;;;;;;;;;;;;;;2.12;100.00;100223.47;10111830;28;20046;-72
2024/02/08 08:31:51;;;;;;;15.05;9.82;;;;;;;2.11;100.00;100221.84;10100560;28;20039;-72
2024/02/08 08:36:35;;;;;;;21.23;10.48;;;;;;;2.14;100.00;100232.09;10095862;28;20065;-72
2024/02/08 08:41:31;;;;;;;15.85;9.85;;;;;;;2.28;100.00;100227.75;10108556;28;20047;-75
2024/02/08 08:46:32;;;;;;;15.77;10.00;;;;;;;2.31;100.00;100227.19;10094920;28;20109;-73
2024/02/08 08:51:30;;;;;;;16.88;10.20;;;;;;;2.39;100.00;100212.34;10107319;28;20078;-73
2024/02/08 08:56:28;;;;;;;23.25;9.55;;;;;;;2.49;100.00;100214.19;10114692;28;20073;-72
2024/02/08 09:01:25;;;;;;;20.48;9.80;;;;;;;2.51;100.00;100206.63;10105175;28;20482;-73
2024/02/08 09:06:25;;;;;;;15.18;9.80;;;;;;;2.61;100.00;100201.19;10103835;28;20477;-72
2024/02/08 09:11:26;;;;;;;14.05;8.65;;;;;;;2.57;100.00;100202.81;10110157;28;20043;-72
2024/02/08 09:21:25;;;;;;;12.20;9.02;;;;;;;2.62;100.00;100221.69;10091755;28;20541;-71
2024/02/08 09:26:24;;;;;;;16.65;8.98;;;;;;;2.66;100.00;100200.34;10098660;28;20565;-72
2024/02/08 09:31:36;;;;;;;16.95;8.63;;;;;;;2.67;100.00;100205.47;10104572;28;20053;-72
2024/02/08 09:36:34;;;;;;;13.73;8.93;;;;;;;2.77;100.00;100203.81;10102746;28;20046;-72
2024/02/08 09:41:33;;;;;;;12.77;8.75;;;;;;;2.80;100.00;100192.44;10103211;28;20050;-71
2024/02/08 09:51:35;;;;;;;22.13;9.23;;;;;;;2.92;100.00;100192.91;10082983;28;20078;-71
2024/02/08 09:56:39;;;;;;;13.32;7.78;;;;;;;3.06;100.00;100193.88;10102186;28;20074;-74
2024/02/08 10:01:42;;;;;;;18.40;8.57;;;;;;;3.05;100.00;100192.28;10096706;28;20042;-73
2024/02/08 10:06:39;;;;;;;20.83;10.50;;;;;;;3.33;100.00;100181.81;10104741;28;20450;-75
2024/02/08 10:11:38;;;;;;;15.00;9.68;;;;;;;3.37;100.00;100172.06;10110570;28;20135;-72
2024/02/08 10:16:43;;;;;;;15.25;8.68;;;;;;;3.51;100.00;100173.03;10095296;28;20171;-72
2024/02/08 10:21:41;;;;;;;19.02;8.57;;;;;;;3.52;100.00;100168.41;10101160;28;20046;-74
2024/02/08 10:26:38;;;;;;;20.05;8.90;;;;;;;3.65;100.00;100166.97;10095988;28;20047;-72
2024/02/08 10:31:37;;;;;;;17.77;9.13;;;;;;;3.74;100.00;100170.66;10108421;28;20128;-73
2024/02/08 10:36:35;;;;;;;15.20;7.80;;;;;;;3.88;100.00;100166.19;10101617;28;20051;-73
2024/02/08 10:47:06;;;;;;;17.58;7.97;;;;;;;4.00;100.00;100163.88;10007652;28;20101;-75
2024/02/08 10:52:03;;;;;;;16.80;8.25;;;;;;;4.02;100.00;100154.69;10105636;28;20422;-72
2024/02/08 10:57:33;;;;;;;21.67;8.80;;;;;;;4.05;100.00;100143.28;10112699;28;20046;-72
2024/02/08 11:02:31;;;;;;;16.40;8.45;;;;;;;4.18;100.00;100145.31;10103078;28;20054;-72
2024/02/08 11:07:33;;;;;;;15.52;8.88;;;;;;;4.24;100.00;100146.84;10113730;28;20086;-71
2024/02/08 11:12:33;;;;;;;19.00;9.55;;;;;;;4.28;100.00;100137.03;10106188;28;20756;-72
2024/02/08 11:17:32;;;;;;;19.13;9.60;;;;;;;4.25;100.00;100132.22;10109365;28;20047;-72
2024/02/08 11:22:34;;;;;;;18.48;9.40;;;;;;;4.16;100.00;100133.97;10122631;28;20146;-72
2024/02/08 11:27:34;;;;;;;;;;;;;;;4.32;100.00;100129.97;10105565;28;20178;-73
2024/02/08 11:32:31;;;;;;;14.93;9.75;;;;;;;4.27;100.00;100130.03;10097446;28;20413;-71
2024/02/08 11:37:29;;;;;;;16.25;10.27;;;;;;;4.22;100.00;100130.91;10102855;28;20047;-71
2024/02/08 11:42:32;;;;;;;20.65;10.77;;;;;;;4.16;100.00;100123.13;10107987;28;20049;-72
2024/02/08 11:47:35;;;;;;;13.38;9.00;;;;;;;4.34;100.00;100119.66;10096973;28;20074;-71
2024/02/08 11:52:34;;;;;;;24.05;10.07;;;;;;;4.31;100.00;100106.69;10104508;28;20695;-72
2024/02/08 11:57:36;;;;;;;20.10;9.52;;;;;;;4.39;100.00;100092.53;10106666;28;20055;-72
2024/02/08 12:02:35;;;;;;;25.40;9.90;;;;;;;4.46;100.00;100088.66;10119156;28;20047;-72
2024/02/08 12:07:31;;;;;;;15.90;9.25;;;;;;;4.55;100.00;100097.69;10108517;28;20050;-72
2024/02/08 12:12:30;;;;;;;15.40;8.90;;;;;;;4.55;100.00;100081.47;10107046;28;20527;-73
2024/02/08 12:17:26;;;;;;;19.25;10.43;;;;;;;4.40;100.00;100086.00;10091754;28;20070;-72
2024/02/08 12:22:23;;;;;;;18.35;9.50;;;;;;;4.48;100.00;100075.59;10106319;28;20046;-73
2024/02/08 12:27:25;;;;;;;18.77;10.43;;;;;;;4.47;100.00;100079.44;10103662;28;20057;-75
2024/02/08 12:32:27;;;;;;;;;;;;;;;4.52;100.00;100073.94;10104271;28;20052;-72
2024/02/08 12:37:29;;;;;;;15.15;10.10;;;;;;;4.37;100.00;100064.13;10096586;28;20267;-73
2024/02/08 12:42:29;;;;;;;15.00;9.07;;;;;;;4.46;100.00;100050.75;10104086;28;20496;-74
2024/02/08 12:47:26;;;;;;;17.02;8.73;;;;;;;4.44;100.00;100032.09;10095676;28;20520;-72
2024/02/08 12:52:23;;;;;;;11.05;9.05;;;;;;;4.47;100.00;100041.53;10099841;28;20043;-72
2024/02/08 12:57:22;;;;;;;18.77;8.90;;;;;;;4.51;100.00;100047.97;10099187;28;20534;-75
2024/02/08 13:02:18;;;;;;;26.38;9.90;;;;;;;4.47;100.00;100036.91;10105899;28;20137;-73
2024/02/08 13:07:16;;;;;;;15.65;8.55;;;;;;;4.46;100.00;100039.94;10089126;28;20058;-73
2024/02/08 13:12:15;;;;;;;10.50;8.30;;;;;;;4.54;100.00;100028.41;10098158;28;20763;-75
2024/02/08 13:17:12;;;;;;;10.05;8.65;;;;;;;4.51;100.00;100021.69;10095084;28;20138;-73
2024/02/08 13:22:09;;;;;;;16.88;9.55;;;;;;;4.29;100.00;100008.75;10095523;28;20062;-73
2024/02/08 13:27:05;;;;;;;13.00;8.93;;;;;;;4.19;100.00;100017.81;10096954;28;20064;-73
2024/02/08 13:32:02;;;;;;;15.63;9.75;;;;;;;4.34;100.00;100010.56;10104663;28;20097;-73
2024/02/08 13:36:58;;;;;;;14.13;9.90;;;;;;;4.33;100.00;100004.38;10096243;28;20038;-73
2024/02/08 13:41:56;;;;;;;14.85;10.40;;;;;;;4.39;100.00;99997.78;10107774;28;20039;-73
2024/02/08 13:46:53;;;;;;;13.98;8.20;;;;;;;4.31;100.00;99995.72;10102403;28;20465;-74
2024/02/08 13:51:50;;;;;;;14.63;8.05;;;;;;;4.32;100.00;99989.22;10103069;28;20052;-73
2024/02/08 13:56:47;;;;;;;16.55;9.00;;;;;;;4.34;100.00;99978.09;10094955;28;20042;-73
2024/02/08 14:01:44;;;;;;;12.00;8.38;;;;;;;4.20;100.00;99975.31;10104527;28;20043;-73
2024/02/08 14:06:42;;;;;;;14.35;8.30;;;;;;;4.15;100.00;99975.41;10103431;28;20047;-73
2024/02/08 14:11:40;;;;;;;12.70;8.27;;;;;;;4.07;100.00;99967.97;10108571;28;20055;-73
2024/02/08 14:16:37;;;;;;;13.55;7.53;;;;;;;4.15;100.00;99970.00;10104906;28;20039;-73
2024/02/08 14:21:40;;;;;;;12.52;8.15;;;;;;;4.18;100.00;99972.13;10104276;28;20050;-75
2024/02/08 14:26:37;;;;;;;12.75;8.45;;;;;;;4.18;100.00;99964.81;10105570;28;20109;-73
2024/02/08 14:31:35;;;;;;;11.90;8.40;;;;;;;4.09;100.00;99960.34;10110706;28;20486;-73
2024/02/08 14:36:35;;;;;;;17.77;8.57;;;;;;;3.90;100.00;99958.44;10099835;28;20146;-73
2024/02/08 14:41:36;;;;;;;14.15;7.90;;;;;;;3.95;100.00;99954.88;10104740;28;20046;-75
2024/02/08 14:46:41;;;;;;;14.85;8.20;;;;;;;3.94;100.00;99948.63;10106714;28;20050;-74
2024/02/08 14:51:40;;;;;;;14.70;7.75;;;;;;;3.86;100.00;99946.59;10099546;28;20039;-74
2024/02/08 14:56:40;;;;;;;22.85;8.18;;;;;;;3.73;100.00;99941.91;10102507;28;20388;-73
2024/02/08 15:01:41;;;;;;;12.65;8.88;;;;;;;3.85;100.00;99934.16;10109388;28;20038;-74
2024/02/08 15:06:38;;;;;;;14.40;9.10;;;;;;;3.75;100.00;99923.50;10102643;28;20605;-72
2024/02/08 15:11:50;;;;;;;17.17;9.43;;;;;;;3.70;100.00;99915.47;10111078;28;20050;-74
2024/02/08 15:16:46;;;;;;;16.33;10.52;;;;;;;3.69;100.00;99908.44;10099178;28;20103;-73
2024/02/08 15:21:49;;;;;;;17.92;8.80;;;;;;;3.72;100.00;99897.06;10100465;28;20545;-73
2024/02/08 15:27:04;;;;;;;13.52;8.77;;;;;;;3.70;100.00;99883.03;10110039;28;20617;-73
2024/02/08 15:32:05;;;;;;;11.88;8.70;;;;;;;3.70;100.00;99874.91;10093956;28;20043;-74
2024/02/08 15:37:13;;;;;;;10.18;8.60;;;;;;;3.62;100.00;99870.16;10099783;28;20061;-74
2024/02/08 15:42:17;;;;;;;14.25;7.85;;;;;;;3.57;100.00;99852.94;10103549;28;20387;-74
2024/02/08 15:47:18;;;;;;;8.77;7.88;;;;;;;3.49;100.00;99845.47;10105004;28;20110;-72
2024/02/08 15:52:15;;;;;;;9.25;7.57;;;;;;;3.51;100.00;99843.28;10111288;28;20050;-72
2024/02/08 15:57:13;;;;;;;13.35;8.30;;;;;;;3.44;100.00;99842.84;10110226;28;20051;-72
2024/02/08 16:02:13;;;;;;;10.48;7.55;;;;;;;3.40;100.00;99839.09;10111266;28;20058;-75
2024/02/08 16:07:15;;;;;;;10.32;7.57;;;;;;;3.36;100.00;99846.16;10102080;28;20106;-73
2024/02/08 16:12:13;;;;;;;16.65;7.55;;;;;;;3.35;100.00;99844.56;10101561;28;20051;-75
2024/02/08 16:22:28;;;;;;;14.43;9.20;;;;;;;3.29;100.00;99845.72;10103551;28;20054;-72
2024/02/08 16:27:27;;;;;;;15.35;9.77;;;;;;;3.19;100.00;99862.09;10110545;28;20585;-76
2024/02/08 16:32:33;;;;;;;14.70;10.02;;;;;;;3.20;100.00;99858.28;10092180;28;20102;-73
2024/02/08 16:37:42;;;;;;;11.80;8.90;;;;;;;3.21;100.00;99865.31;10099561;28;20043;-73
2024/02/08 16:42:47;;;;;;;16.10;9.85;;;;;;;3.06;100.00;99858.97;10111429;28;20697;-73
2024/02/08 16:47:53;;;;;;;12.45;9.20;;;;;;;2.95;100.00;99857.50;10101402;28;20521;-73
2024/02/08 16:52:58;;;;;;;15.15;9.77;;;;;;;2.87;100.00;99860.81;10115451;28;20510;-73
2024/02/08 16:58:06;;;;;;;17.33;10.30;;;;;;;2.68;100.00;99858.88;10121298;28;20046;-73
2024/02/08 17:03:08;;;;;;;16.38;10.13;;;;;;;2.47;100.00;99862.88;10099069;28;20072;-73
2024/02/08 17:08:06;;;;;;;12.57;11.15;;;;;;;2.47;100.00;99862.88;10093709;28;20063;-72
2024/02/08 17:18:24;;;;;;;16.13;11.65;;;;;;;2.23;100.00;99866.31;10071615;28;20077;-75
2024/02/08 17:23:27;;;;;;;12.20;11.00;;;;;;;2.10;100.00;99864.25;10094368;28;20086;-74
2024/02/08 17:28:49;;;;;;;15.02;11.40;;;;;;;1.96;100.00;99857.91;10088818;28;20046;-72
2024/02/08 17:33:49;;;;;;;17.95;12.07;;;;;;;1.81;100.00;99853.41;10097479;28;20051;-73
2024/02/08 17:38:46;;;;;;;16.85;12.15;;;;;;;1.87;100.00;99847.72;10095625;28;20047;-72
2024/02/08 17:43:50;;;;;;;14.60;12.20;;;;;;;1.59;100.00;99832.28;10099746;28;20055;-71
2024/02/08 17:48:53;;;;;;;15.07;11.82;;;;;;;1.55;100.00;99842.00;10103230;28;20058;-74
2024/02/08 17:53:53;;;;;;;15.65;12.15;;;;;;;1.56;100.00;99827.47;10084071;28;20051;-73
2024/02/08 17:58:55;;;;;;;11.93;10.77;;;;;;;1.61;100.00;99814.75;10095981;28;20089;-74
2024/02/08 18:03:52;;;;;;;13.67;12.27;;;;;;;1.50;100.00;99807.03;10094337;28;20043;-73
2024/02/08 18:08:50;;;;;;;13.30;12.02;;;;;;;1.43;100.00;99800.06;10097536;28;20492;-72
2024/02/08 18:13:49;;;;;;;13.35;12.05;;;;;;;1.41;100.00;99799.53;10094122;28;20042;-72
2024/02/08 18:18:47;;;;;;;13.38;12.13;;;;;;;1.41;100.00;99799.53;10092584;28;20046;-72
2024/02/08 18:23:45;;;;;;;12.57;11.32;;;;;;;1.36;100.00;99796.06;10088404;28;20070;-72
2024/02/08 18:28:43;;;;;;;14.13;12.18;;;;;;;1.30;100.00;99787.22;10093380;28;20054;-72
2024/02/08 18:33:45;;;;;;;11.43;10.35;;;;;;;1.24;100.00;99777.56;10098695;28;20050;-72
2024/02/08 18:38:42;;;;;;;12.02;10.80;;;;;;;1.40;100.00;99787.16;10084014;28;20078;-72
2024/02/08 18:43:40;;;;;;;12.55;11.50;;;;;;;1.39;100.00;99780.16;10085152;28;20123;-72
2024/02/08 18:48:38;;;;;;;12.32;11.07;;;;;;;1.45;100.00;99768.25;10094687;28;20053;-73
2024/02/08 18:53:38;;;;;;;12.30;11.13;;;;;;;1.42;100.00;99774.22;10112507;28;20138;-73
2024/02/08 18:58:38;;;;;;;12.48;10.85;;;;;;;1.47;100.00;99771.47;10113876;28;20050;-72
2024/02/08 19:03:36;;;;;;;11.68;10.60;;;;;;;1.51;100.00;99760.13;10105298;28;20050;-73
2024/02/08 19:08:36;;;;;;;12.00;10.90;;;;;;;1.56;100.00;99752.03;10115023;28;20053;-72
2024/02/08 19:13:35;;;;;;;11.70;10.57;;;;;;;1.52;100.00;99745.59;10107224;28;20122;-73
2024/02/08 19:18:43;;;;;;;12.35;11.13;;;;;;;1.53;100.00;99739.91;10094505;28;20048;-73
2024/02/08 19:23:44;;;;;;;11.05;10.20;;;;;;;1.64;100.00;99732.56;10128038;28;20078;-72
2024/02/08 19:28:45;;;;;;;13.20;10.43;;;;;;;1.56;100.00;99735.88;10108886;28;20039;-72
2024/02/08 19:33:47;;;;;;;11.25;9.70;;;;;;;1.51;100.00;99744.78;10103409;28;20103;-72
2024/02/08 19:38:49;;;;;;;10.48;9.55;;;;;;;1.37;100.00;99733.84;10100663;28;20049;-72
2024/02/08 19:43:46;;;;;;;12.82;9.85;;;;;;;1.41;100.00;99729.50;10107111;28;20093;-72
2024/02/08 19:48:44;;;;;;;11.63;9.73;;;;;;;1.52;100.00;99726.72;10118462;28;20062;-73
2024/02/08 19:53:43;;;;;;;11.60;9.77;;;;;;;1.45;100.00;99709.00;10097212;28;20050;-74
2024/02/08 19:58:40;;;;;;;10.27;9.38;;;;;;;1.52;100.00;99724.03;10114609;28;20524;-73
2024/02/08 20:03:41;;;;;;;10.73;9.82;;;;;;;1.51;100.00;99717.03;10106525;28;20043;-73
2024/02/08 20:08:44;;;;;;;10.10;9.43;;;;;;;1.54;100.00;99716.47;10101658;28;20051;-73
2024/02/08 20:13:41;;;;;;;11.25;10.02;;;;;;;1.50;100.00;99708.16;10097132;28;20573;-72
2024/02/08 20:18:38;;;;;;;11.13;9.90;;;;;;;1.49;100.00;99713.84;10114552;28;20577;-74
2024/02/08 20:23:39;;;;;;;10.88;9.52;;;;;;;1.50;100.00;99710.84;10108774;28;20038;-72
2024/02/08 20:28:37;;;;;;;14.05;9.48;;;;;;;1.47;100.00;99720.28;10103630;28;20050;-73
2024/02/08 20:33:37;;;;;;;13.23;9.77;;;;;;;1.44;100.00;99712.78;10109942;28;20046;-74
2024/02/08 20:38:35;;;;;;;11.07;10.07;;;;;;;1.30;100.00;99713.69;10098823;28;20414;-73
2024/02/08 20:43:36;;;;;;;10.95;9.93;;;;;;;1.28;100.00;99708.59;10094678;28;20058;-78
2024/02/08 20:48:33;;;;;;;12.50;10.23;;;;;;;1.50;100.00;99704.66;10107996;28;20047;-76
2024/02/08 20:53:30;;;;;;;10.85;9.85;;;;;;;1.33;100.00;99700.47;10098039;28;20047;-75
2024/02/08 20:58:27;;;;;;;12.07;10.88;;;;;;;1.36;100.00;99694.53;10083735;28;20053;-73
2024/02/08 21:03:25;;;;;;;11.10;10.10;;;;;;;1.36;100.00;99694.53;10097308;28;20062;-74
2024/02/08 21:08:25;;;;;;;10.15;9.32;;;;;;;1.31;100.00;99691.06;10097258;28;20055;-74
2024/02/08 21:13:22;;;;;;;11.00;9.63;;;;;;;1.32;100.00;99693.47;10104481;28;20051;-75
2024/02/08 21:18:18;;;;;;;10.38;9.48;;;;;;;1.40;100.00;99690.19;10094141;28;20073;-75
2024/02/08 21:23:15;;;;;;;11.13;9.95;;;;;;;1.43;100.00;99684.22;10099670;28;20085;-72
2024/02/08 21:28:13;;;;;;;12.50;10.73;;;;;;;1.37;100.00;99676.47;10106813;28;20054;-74
2024/02/08 21:33:10;;;;;;;11.68;10.55;;;;;;;1.29;100.00;99658.22;10105276;28;20043;-73
2024/02/08 21:38:07;;;;;;;11.75;10.52;;;;;;;1.23;100.00;99657.44;10107053;28;20507;-75
2024/02/08 21:43:07;;;;;;;11.80;10.30;;;;;;;1.18;100.00;99644.84;10102500;28;20046;-74
2024/02/08 21:48:04;;;;;;;11.38;10.25;;;;;;;1.26;100.00;99635.38;10090982;28;20042;-75
2024/02/08 21:53:04;;;;;;;11.13;10.00;;;;;;;1.40;100.00;99630.13;10097789;28;20042;-74
2024/02/08 21:58:04;;;;;;;11.40;9.95;;;;;;;1.22;100.00;99624.34;10090983;28;20074;-75
2024/02/08 22:03:00;;;;;;;12.98;10.07;;;;;;;1.23;100.00;99635.91;10105269;28;20055;-74
2024/02/08 22:07:57;;;;;;;12.88;9.48;;;;;;;1.24;100.00;99632.16;10100722;28;20054;-76
2024/02/08 22:12:54;;;;;;;9.90;9.07;;;;;;;1.23;100.00;99619.75;10107296;28;20102;-73
2024/02/08 22:17:53;;;;;;;10.63;9.57;;;;;;;1.43;100.00;99627.66;10085328;28;20046;-71
2024/02/08 22:22:59;;;;;;;11.05;9.95;;;;;;;1.34;100.00;99617.78;10095602;28;20047;-74
2024/02/08 22:27:58;;;;;;;13.43;9.68;;;;;;;1.27;100.00;99604.66;10103037;28;20058;-74
2024/02/08 22:32:56;;;;;;;13.55;9.73;;;;;;;1.21;100.00;99597.72;10109007;28;20510;-78
2024/02/08 22:37:53;;;;;;;10.60;9.55;;;;;;;1.19;100.00;99586.41;10107687;28;20046;-78
2024/02/08 22:42:50;;;;;;;10.35;9.20;;;;;;;1.36;100.00;99581.41;10113643;28;20495;-79
2024/02/08 22:47:47;;;;;;;10.73;9.60;;;;;;;1.36;100.00;99576.00;10113796;28;20043;-76
2024/02/08 22:52:45;;;;;;;14.60;10.07;;;;;;;1.23;100.00;99566.72;10111737;28;20043;-74
2024/02/08 22:57:47;;;;;;;10.77;9.60;;;;;;;1.36;100.00;99559.84;10108022;28;20059;-77
2024/02/08 23:02:44;;;;;;;9.85;9.00;;;;;;;1.21;100.00;99554.63;10112349;28;20062;-77
2024/02/08 23:07:44;;;;;;;10.50;9.45;;;;;;;1.43;100.00;99548.75;10103850;28;20047;-77
2024/02/08 23:12:42;;;;;;;10.15;9.02;;;;;;;1.19;100.00;99546.03;10110995;28;20050;-76
2024/02/08 23:17:39;;;;;;;10.02;9.23;;;;;;;1.18;100.00;99530.94;10108071;28;20038;-76
2024/02/08 23:22:40;;;;;;;10.13;9.23;;;;;;;1.26;100.00;99524.97;10103743;28;20047;-74
2024/02/08 23:27:37;;;;;;;10.05;9.25;;;;;;;1.31;100.00;99527.59;10101843;28;20043;-76
2024/02/08 23:32:35;;;;;;;10.60;9.70;;;;;;;1.12;100.00;99532.09;10101826;28;20039;-74
2024/02/08 23:37:31;;;;;;;10.50;9.57;;;;;;;1.13;100.00;99517.53;10106673;28;20050;-74
2024/02/08 23:42:29;;;;;;;11.57;10.05;;;;;;;1.14;100.00;99516.44;10110408;28;20051;-72
2024/02/08 23:47:28;;;;;;;10.30;9.40;;;;;;;1.34;100.00;99508.16;10105489;28;20070;-73
2024/02/08 23:52:24;;;;;;;10.90;9.68;;;;;;;1.30;100.00;99511.72;10109989;28;20043;-72
2024/02/08 23:57:21;;;;;;;11.80;10.20;;;;;;;1.36;100.00;99506.00;10105632;28;20038;-75
